Flight Track Log - Related Links

Times and Time Zones

All times are in EDT time to prevent confusion due to time zone crossing. See the UCA3597 flight status page for this flight to view local times or setup timezone preferences in your user account.

Time Position Orientation Groundspeed Altitude Reporting Facility
EDT Latitude Longitude Course Direction KTS MPH feet Rate Location/Type
07:22PM 42.2031 -76.0617 211° Southwest 176 203 4,600  Level New York Center
07:23PM 42.1558 -76.0942 207° Southwest 181 208 6,300 1,587 Climbing New York Center
07:24PM 42.1106 -76.1325 212° Southwest 198 228 7,800 1,600 Climbing New York Center
07:25PM 42.0653 -76.1681 210° Southwest 198 228 9,500 1,600 Climbing New York Center
07:26PM 42.0094 -76.1997 203° Southwest 212 244 11,000 1,537 Climbing New York Center
07:27PM 41.8455 -76.1522 211° Southwest  Level Estimated
07:27PM 41.9561 -76.2286 202° Southwest 217 250 12,600  Level New York Center
07:28PM 41.9028 -76.2606 204° Southwest 217 250 13,900 712 Climbing New York Center
07:29PM 41.8469 -76.2950 205° Southwest 228 262 14,000 645 Climbing New York Center
07:30PM 41.7850 -76.3289 202° Southwest 238 274 15,200 1,000 Climbing New York Center
07:31PM 41.7208 -76.3650 203° Southwest 238 274 16,000 397 Climbing New York Center
07:32PM 41.6544 -76.4011 202° Southwest 249 287 16,000  Level New York Center
07:33PM 41.5925 -76.4375 204° Southwest 270 311 16,000  Level New York Center
07:34PM 41.5239 -76.4761 203° Southwest 270 311 16,000  Level New York Center
07:35PM 41.4469 -76.5194 203° Southwest 275 316 16,000  Level New York Center
07:36PM 41.3764 -76.5550 201° Southwest 275 316 16,000  Level New York Center
07:37PM 41.3056 -76.5958 203° Southwest 280 322 16,000  Level New York Center
07:38PM 41.2436 -76.6292 202° Southwest 280 322 16,000  Level New York Center
07:39PM 41.1664 -76.6747 204° Southwest 280 322 16,000  Level New York Center
07:40PM 41.0975 -76.7156 204° Southwest 280 322 16,000  Level New York Center
07:41PM 41.0269 -76.7533 202° Southwest 280 322 16,000  Level New York Center
07:42PM 40.9561 -76.7939 203° Southwest 280 322 16,000  Level New York Center
07:43PM 40.8939 -76.8294 203° Southwest 275 316 16,000 -150 Level New York Center
07:44PM 40.8144 -76.8719 202° Southwest 280 322 15,700 -504 Descending New York Center
07:45PM 40.7442 -76.9014 198° South 286 329 15,000 -885 Descending New York Center
07:46PM 40.6533 -76.9286 193° South 299 344 13,900 -942 Descending New York Center
07:47PM 40.5811 -76.9497 193° South 304 350 13,100 -800 Descending New York Center
07:48PM 40.4922 -76.9772 193° South 304 350 12,300 -559 Descending New York Center
07:49PM 40.4203 -77.0006 194° South 304 350 12,000 -246 Descending New York Center
07:51PM 40.2667 -77.0500 194° South 287 330 11,600 -416 Descending Potomac TRACON
07:52PM 40.1833 -77.0667 189° South 295 339 10,800 -800 Descending Potomac TRACON
07:53PM 40.1000 -77.1000 197° South 289 333 10,000 -762 Descending Potomac TRACON
07:54PM 40.0333 -77.1167 191° South 284 327 9,200 -500 Descending Potomac TRACON
07:55PM 39.9500 -77.1500 197° South 274 315 9,000 -100 Descending Potomac TRACON
07:56PM 39.8667 -77.1333 171° South 268 308 9,000 -283 Level Potomac TRACON
07:57PM 39.8000 -77.1167 169° South 277 319 8,400 -496 Descending Potomac TRACON
07:58PM 39.7333 -77.1833 218° Southwest 274 315 8,000 -200 Descending Potomac TRACON
07:59PM 39.6833 -77.2500 226° Southwest 253 291 8,000  Level Potomac TRACON
08:00PM 39.6500 -77.3167 237° Southwest 253 291 8,000 -200 Level Potomac TRACON
08:01PM 39.5833 -77.3500 201° Southwest 272 313 7,600 -400 Descending Potomac TRACON
08:02PM 39.5000 -77.3500 180° South 274 315 7,200 -300 Descending Potomac TRACON
08:03PM 39.4333 -77.3667 191° South 266 306 7,000 -400 Descending Potomac TRACON
08:04PM 39.3500 -77.3667 180° South 270 311 6,400 -893 Descending Potomac TRACON
08:05PM 39.2833 -77.3667 180° South 272 313 5,200 -992 Descending Potomac TRACON
08:06PM 39.2000 -77.3667 180° South 266 306 4,400 -600 Descending Potomac TRACON
08:07PM 39.1333 -77.3500 169° South 259 298 4,000 -250 Descending Potomac TRACON
08:08PM 39.0667 -77.3500 180° South 253 291 3,900 -381 Descending Potomac TRACON
08:09PM 38.9833 -77.3500 180° South 261 300 3,200 -450 Descending Potomac TRACON
08:10PM 38.9167 -77.3500 180° South 247 284 3,000 -100 Descending Potomac TRACON
08:11PM 38.8500 -77.3667 191° South 244 281 3,000 -400 Level Potomac TRACON
08:12PM 38.7833 -77.3833 191° South 262 302 2,200 -500 Descending Potomac TRACON
08:13PM 38.8167 -77.4333 311° West 228 262 2,000 -400 Descending Potomac TRACON
08:14PM 38.8667 -77.4333 360° North 193 222 1,400 -750 Descending Potomac TRACON
08:15PM 38.9167 -77.4333 360° North 123 142 500 -818 Descending Potomac TRACON

Login

Don't have an account? Register now (free) for customized features, flight alerts, and more!